Sunshine Summit (212) Station Data

Red Flag Warning: No
Fire Weather Zone: 258
SDGE Region: Ramona
Lat/Lon: 33.344/-116.732

Observations

Time Wind Speed/Gust Temp(F) RH Fuel Moist Fuel Temp(F) Dewpt(F) Tmax(F) Tmin(F) Accum Precip 10-min Precip SL Press(mb)
5/24 8:30am 108 6 G 9 67° 42% - - 43° 67.9° 54.2° - - -
5/24 8:20am 107 6 G 9 65° 45% - - 43° 67.4° 54.2° - - -
5/24 8:10am 139 5 G 8 63° 48% - - 43° 67.4° 54.2° - - -
5/24 8:00am 109 4 G 6 63° 48% - - 43° 67.4° 54.2° - - -
5/24 7:50am 160 3 G 4 63° 47% - - 42° 67.4° 54.2° - - -
5/24 7:40am 125 3 G 4 61° 48% - - 42° 67.4° 54.2° - - -
5/24 7:30am 110 4 G 5 61° 51% - - 42° 67.4° 54.2° - - -
5/24 7:20am 125 3 G 4 60° 54% - - 44° 67.4° 54.2° - - -
5/24 7:10am 140 2 G 4 61° 53% - - 44° 67.4° 54.2° - - -
5/24 7:00am 130 2 G 4 60° 57% - - 45° 67.4° 54.2° - - -
5/24 6:50am 152 1 G 4 61° 54% - - 45° 67.4° 54.2° - - -
5/24 6:40am 72 1 G 2 61° 56% - - 45° 67.4° 54.2° - - -
5/24 6:30am 279 2 G 3 59° 55% - - 43° 67.4° 54.2° - - -
5/24 6:20am 315 2 G 3 57° 58% - - 43° 67.4° 54.2° - - -
5/24 6:10am 322 2 G 4 55° 65% - - 44° 67.4° 54.2° - - -
5/24 6:00am 341 1 G 3 55° 65% - - 43° 67.4° 54.2° - - -
5/24 5:50am 167 2 G 4 56° 63% - - 44° 67.4° 55.4° - - -
5/24 5:40am 169 2 G 4 56° 62% - - 44° 67.4° 55.4° - - -
5/24 5:30am 101 2 G 3 59° 53% - - 42° 67.4° 56.7° - - -
5/24 5:20am 299 4 G 5 61° 48% - - 41° 67.4° 57.6° - - -
5/24 5:10am 300 5 G 6 60° 48% - - 41° 67.4° 57.6° - - -
5/24 5:00am 314 5 G 6 60° 50% - - 41° 67.4° 57.6° - - -
5/24 4:50am 293 5 G 7 61° 50% - - 43° 67.4° 57.6° - - -
5/24 4:40am 294 5 G 6 61° 50% - - 42° 67.4° 57.6° - - -
5/24 4:30am 292 3 G 4 60° 49% - - 41° 67.4° 57.6° - - -
5/24 4:20am 286 3 G 4 61° 51% - - 43° 67.4° 57.6° - - -
5/24 4:10am 306 3 G 4 60° 54% - - 43° 67.4° 57.6° - - -
5/24 4:00am 239 2 G 3 59° 57% - - 43° 67.4° 57.6° - - -
5/24 3:50am 184 1 G 3 58° 58% - - 43° 67.4° 57.6° - - -
5/24 3:40am 175 1 G 3 60° 53% - - 43° 67.4° 58.8° - - -
5/24 3:30am 193 1 G 2 60° 50% - - 42° 67.4° 60.1° - - -
5/24 3:20am 199 1 G 3 61° 52% - - 43° 67.4° 60.1° - - -
5/24 3:10am 231 1 G 2 61° 53% - - 44° 67.4° 60.1° - - -
5/24 3:00am 310 1 G 2 61° 51% - - 42° 67.4° 60.1° - - -
5/24 2:50am 299 3 G 6 61° 49% - - 42° 67.4° 60.5° - - -
5/24 2:40am 308 5 G 6 61° 47% - - 41° 67.4° 60.5° - - -
5/24 2:30am 317 5 G 5 62° 46% - - 41° 67.4° 60.6° - - -
5/24 2:20am 310 5 G 6 63° 43% - - 40° 67.4° 61.6° - - -
5/24 2:10am 316 4 G 5 64° 42% - - 41° 67.4° 61.6° - - -
5/24 2:00am 299 3 G 5 65° 43% - - 42° 67.4° 61.6° - - -
5/24 1:50am 303 3 G 4 65° 43% - - 42° 67.4° 61.6° - - -
5/24 1:40am 287 3 G 4 64° 47% - - 43° 67.4° 61.6° - - -
5/24 1:30am 310 3 G 4 64° 46% - - 42° 67.4° 61.6° - - -
5/24 1:20am 257 1 G 2 64° 46% - - 43° 67.4° 62.7° - - -
5/24 1:10am 309 2 G 2 63° 51% - - 45° 67.4° 62.7° - - -
5/24 1:00am 316 1 G 2 64° 50% - - 45° 67.4° 62.9° - - -
5/24 12:50am 194 2 G 3 65° 48% - - 45° 67.4° 64.3° - - -
5/24 12:40am 176 1 G 4 66° 48% - - 45° 67.4° 64.3° - - -
5/24 12:30am 340 2 G 4 67° 45% - - 44° 67.4° 64.3° - - -
5/24 12:20am 301 3 G 4 66° 47% - - 45° 66.5° 64.3° - - -
5/24 12:10am 306 4 G 5 65° 51% - - 46° 65.7° 64.3° - - -
5/24 12:00am 300 5 G 6 66° 48% - - 46° 92.2° 59.6° - - -
5/23 11:50pm 292 6 G 7 66° 48% - - 46° 92.2° 59.6° - - -
5/23 11:40pm 300 6 G 6 66° 49% - - 46° 92.2° 59.6° - - -
5/23 11:30pm 297 5 G 6 66° 48% - - 46° 92.2° 59.6° - - -
5/23 11:20pm 295 5 G 6 67° 44% - - 44° 92.2° 59.6° - - -
5/23 11:10pm 301 5 G 6 66° 44% - - 44° 92.2° 59.6° - - -
5/23 11:00pm 306 5 G 6 66° 44% - - 44° 92.2° 59.6° - - -
5/23 10:50pm 307 5 G 6 67° 40% - - 43° 92.2° 59.6° - - -
5/23 10:40pm 301 5 G 6 67° 40% - - 42° 92.2° 59.6° - - -
5/23 10:30pm 301 5 G 5 66° 42% - - 42° 92.2° 59.6° - - -
5/23 10:20pm 310 5 G 5 66° 41% - - 42° 92.2° 59.6° - - -
5/23 10:10pm 308 5 G 6 66° 40% - - 41° 92.2° 59.6° - - -
5/23 10:00pm 314 5 G 6 66° 39% - - 40° 92.2° 59.6° - - -
5/23 9:50pm 306 5 G 6 66° 36% - - 39° 92.2° 59.6° - - -
5/23 9:40pm 309 5 G 6 67° 35% - - 38° 92.2° 59.6° - - -
5/23 9:30pm 301 4 G 6 70° 30% - - 37° 92.2° 59.6° - - -
5/23 9:20pm 298 4 G 5 69° 30% - - 37° 92.2° 59.6° - - -
5/23 9:10pm 295 4 G 5 70° 30% - - 37° 92.2° 59.6° - - -
5/23 9:00pm 299 5 G 7 70° 30% - - 37° 92.2° 59.6° - - -
5/23 8:50pm 304 6 G 7 70° 29% - - 36° 92.2° 59.6° - - -
5/23 8:40pm 317 5 G 7 71° 28% - - 36° 92.2° 59.6° - - -
5/23 8:30pm 290 6 G 7 73° 26% - - 36° 92.2° 59.6° - - -
5/23 8:20pm 291 6 G 7 73° 26% - - 36° 92.2° 59.6° - - -
5/23 8:10pm 293 6 G 7 73° 26% - - 37° 92.2° 59.6° - - -
5/23 8:00pm 293 5 G 7 72° 28% - - 37° 92.2° 59.6° - - -
5/23 7:50pm 306 4 G 6 73° 28% - - 38° 92.2° 59.6° - - -
5/23 7:40pm 279 5 G 8 75° 27% - - 38° 92.2° 59.6° - - -
5/23 7:30pm 285 5 G 7 76° 26% - - 39° 92.2° 59.6° - - -
5/23 7:20pm 290 5 G 8 78° 23% - - 38° 92.2° 59.6° - - -
5/23 7:10pm 289 6 G 9 80° 21% - - 37° 92.2° 59.6° - - -
5/23 7:00pm 308 6 G 11 81° 20% - - 36° 92.2° 59.6° - - -
5/23 6:50pm 321 7 G 12 82° 18% - - 35° 92.2° 59.6° - - -
5/23 6:40pm 325 7 G 12 82° 18% - - 35° 92.2° 59.6° - - -
5/23 6:30pm 322 7 G 12 83° 18% - - 35° 92.2° 59.6° - - -
5/23 6:20pm 321 8 G 13 83° 17% - - 34° 92.2° 59.6° - - -
5/23 6:10pm 318 7 G 13 83° 17% - - 35° 92.2° 59.6° - - -
5/23 6:00pm 314 8 G 15 83° 18% - - 35° 92.2° 59.6° - - -
5/23 5:50pm 309 7 G 14 84° 18% - - 35° 92.2° 59.6° - - -
5/23 5:40pm 305 8 G 16 84° 18% - - 36° 92.2° 59.6° - - -
5/23 5:30pm 317 9 G 16 84° 18% - - 36° 92.2° 59.6° - - -
5/23 5:20pm 321 9 G 16 85° 16% - - 34° 92.2° 59.6° - - -
5/23 5:10pm 320 9 G 16 85° 16% - - 34° 92.2° 59.6° - - -
5/23 5:00pm 324 9 G 17 86° 15% - - 34° 92.2° 59.6° - - -
5/23 4:50pm 322 8 G 16 87° 16% - - 34° 92.2° 59.6° - - -
5/23 4:40pm 320 10 G 17 87° 15% - - 34° 92.2° 59.6° - - -
5/23 4:30pm 345 10 G 17 88° 14% - - 33° 92.2° 59.6° - - -
5/23 4:20pm 344 9 G 16 88° 14% - - 33° 92.2° 59.6° - - -
5/23 4:10pm 324 8 G 16 89° 14% - - 34° 92.2° 59.6° - - -
5/23 4:00pm 342 8 G 16 89° 14% - - 33° 92.2° 59.6° - - -
5/23 3:50pm 352 9 G 17 88° 14% - - 33° 92.2° 59.6° - - -
5/23 3:40pm 320 8 G 16 89° 14% - - 34° 92.2° 59.6° - - -
5/23 3:30pm 305 8 G 19 90° 14% - - 34° 92.2° 59.6° - - -
5/23 3:20pm 302 6 G 13 90° 13% - - 33° 92.2° 59.6° - - -
5/23 3:10pm 294 7 G 15 90° 13% - - 33° 92.2° 59.6° - - -
5/23 3:00pm 290 6 G 16 90° 14% - - 34° 92.2° 59.6° - - -
5/23 2:50pm 314 7 G 14 91° 13% - - 34° 92.2° 59.6° - - -
5/23 2:40pm 326 6 G 13 91° 13% - - 34° 92.2° 59.6° - - -
5/23 2:30pm 301 7 G 14 90° 13% - - 34° 92.1° 59.6° - - -
5/23 2:20pm 295 7 G 13 91° 14% - - 35° 92.1° 59.6° - - -
5/23 2:10pm 289 6 G 12 90° 14% - - 34° 92.1° 59.6° - - -
5/23 2:00pm 235 5 G 12 91° 14% - - 35° 92.1° 59.6° - - -
5/23 1:50pm 197 5 G 11 91° 13% - - 33° 92.1° 59.6° - - -
5/23 1:40pm 218 6 G 17 91° 13% - - 34° 91.9° 59.6° - - -
5/23 1:30pm 227 6 G 14 91° 13% - - 34° 91.9° 59.6° - - -
5/23 1:20pm 210 7 G 14 91° 12% - - 32° 91.9° 59.6° - - -
5/23 1:10pm 181 8 G 13 91° 12% - - 31° 91.9° 59.6° - - -
5/23 1:00pm 205 6 G 14 91° 12% - - 31° 91.9° 59.6° - - -
5/23 12:50pm 126 4 G 9 90° 10% - - 27° 91.9° 59.6° - - -
5/23 12:40pm 184 6 G 13 91° 11% - - 29° 91.9° 59.6° - - -
5/23 12:30pm 237 4 G 10 90° 11% - - 28° 91.1° 59.6° - - -
5/23 12:20pm 195 5 G 13 90° 11% - - 28° 91.1° 59.6° - - -
5/23 12:10pm 221 7 G 14 90° 10% - - 27° 91.1° 59.6° - - -
5/23 12:00pm 209 7 G 16 90° 10% - - 26° 91.1° 59.6° - - -
5/23 11:50am 189 7 G 13 90° 10% - - 27° 90.5° 59.6° - - -
5/23 11:40am 176 8 G 14 90° 10% - - 27° 90.5° 59.6° - - -
5/23 11:30am 203 5 G 10 90° 11% - - 28° 90.5° 59.6° - - -
5/23 11:20am 193 7 G 13 90° 11% - - 28° 89.9° 59.6° - - -
5/23 11:10am 214 7 G 13 89° 11% - - 27° 89.7° 59.6° - - -
5/23 11:00am 195 7 G 13 90° 11% - - 27° 89.7° 59.6° - - -
5/23 10:50am 157 6 G 12 89° 11% - - 28° 89.7° 59.6° - - -
5/23 10:40am 129 4 G 7 88° 15% - - 34° 88.3° 59.6° - - -
5/23 10:30am 115 4 G 6 86° 17% - - 36° 87° 59.6° - - -
5/23 10:20am 96 3 G 6 85° 20% - - 39° 86.2° 59.6° - - -
5/23 10:10am 113 3 G 6 84° 23% - - 42° 84.5° 59.6° - - -
5/23 10:00am 95 2 G 5 82° 25% - - 43° 83.8° 59.6° - - -
5/23 9:50am 92 3 G 5 81° 26% - - 43° 81.5° 59.6° - - -
5/23 9:40am 132 3 G 4 79° 28% - - 43° 80.1° 59.6° - - -
5/23 9:30am 118 3 G 6 79° 29% - - 43° 79° 59.6° - - -
5/23 9:20am 111 2 G 5 77° 30% - - 43° 78° 59.6° - - -
5/23 9:10am 109 3 G 5 76° 31% - - 44° 77.3° 59.6° - - -
5/23 9:00am 107 3 G 5 75° 32% - - 43° 76.1° 59.6° - - -
5/23 8:50am 98 3 G 5 74° 32% - - 43° 75.1° 59.6° - - -
5/23 8:40am 114 3 G 6 73° 33% - - 43° 73.7° 59.6° - - -
5/23 8:30am 112 3 G 5 73° 34% - - 43° 73.2° 59.6° - - -
5/23 8:20am 113 3 G 5 71° 36% - - 43° 72.1° 59.6° - - -
5/23 8:10am 136 3 G 4 70° 37% - - 43° 70.9° 59.6° - - -
5/23 8:00am 117 3 G 4 70° 36% - - 42° 70.1° 59.6° - - -
5/23 7:50am 125 3 G 4 69° 37% - - 42° 69.7° 59.6° - - -
5/23 7:40am 112 2 G 4 68° 39% - - 43° 69.2° 59.6° - - -
5/23 7:30am 134 2 G 3 67° 41% - - 43° 69.1° 59.6° - - -
5/23 7:20am 103 2 G 4 67° 39% - - 42° 69.1° 59.6° - - -
5/23 7:10am 105 1 G 2 69° 37% - - 41° 69.1° 59.6° - - -
5/23 7:00am 74 0 G 1 67° 41% - - 43° 68.7° 59.6° - - -
5/23 6:50am 36 0 G 1 65° 46% - - 44° 67.6° 59.6° - - -
5/23 6:40am 4 1 G 2 64° 46% - - 43° 67.6° 59.6° - - -
5/23 6:30am 291 1 G 1 63° 46% - - 42° 67.6° 59.6° - - -
5/23 6:20am 262 0 G 1 62° 46% - - 41° 67.6° 59.6° - - -
5/23 6:10am 289 1 G 2 61° 48% - - 41° 67.6° 59.6° - - -
5/23 6:00am 194 1 G 1 61° 48% - - 41° 67.6° 59.6° - - -